Time;durP1;ratioP1;P1;durP2;ratioP2;P2;SDS_P1;SDS_P2;PMS_P1;PMS_P2;Temp;Humidity;BMP_temperature;BMP_pressure;BME280_temperature;BME280_humidity;BME280_pressure;Samples;Min_cycle;Max_cycle;Signal;HPM_P1;HPM_P2
2021/08/06 00:01:41;;;;;;;;;3.50;3.00;;;;;;;;4603928;30;45580;-81
2021/08/06 00:04:38;;;;;;;;;3.50;3.00;;;;;;;;4599500;30;45640;-81
2021/08/06 00:10:44;;;;;;;;;;;;;;;;;;;;;
2021/08/06 00:16:34;;;;;;;;;2.50;1.50;;;;;;;;4452330;31;45809;-82
2021/08/06 00:27:20;;;;;;;;;3.50;2.75;;;;;;;;1068270;28;46732;-81
2021/08/06 00:30:04;;;;;;;;;;;;;;;;;;;;;
2021/08/06 00:32:50;;;;;;;;;5.75;2.00;;;;;;;;4685539;30;75324;-81
2021/08/06 00:37:51;;;;;;;;;1.00;1.00;;;;;;;;1204789;28;46294;-80
2021/08/06 00:40:16;;;;;;;;;1.00;1.00;;;;;;;;4679964;30;45495;-81
2021/08/06 00:42:41;;;;;;;;;3.00;3.00;;;;;;;;4673581;30;46245;-81
2021/08/06 00:50:17;;;;;;;;;3.25;3.00;;;;;;;;4710192;24;46828;-81
2021/08/06 00:52:42;;;;;;;;;2.75;1.50;;;;;;;;4696766;24;46103;-81
2021/08/06 00:57:48;;;;;;;;;4.00;2.00;;;;;;;;4668534;30;45419;-80
2021/08/06 01:00:21;;;;;;;;;2.00;1.00;;;;;;;;4660897;30;45712;-81
2021/08/06 01:02:46;;;;;;;;;5.25;2.00;;;;;;;;4673893;30;46838;-81
2021/08/06 01:08:59;;;;;;;;;3.00;2.00;;;;;;;;4587537;30;46671;-81
2021/08/06 01:14:30;;;;;;;;;1.00;1.00;;;;;;;;4652644;24;45752;-91
2021/08/06 01:16:57;;;;;;;;;1.00;1.00;;;;;;;;4685453;30;46215;-92
2021/08/06 01:19:25;;;;;;;;;3.00;2.00;;;;;;;;4711213;30;45144;-92
2021/08/06 01:22:00;;;;;;;;;1.00;1.00;;;;;;;;4693981;30;45514;-91
2021/08/06 01:24:27;;;;;;;;;3.25;2.00;;;;;;;;4695888;30;46569;-91
2021/08/06 01:26:54;;;;;;;;;1.00;1.00;;;;;;;;4696668;30;45546;-91
2021/08/06 01:29:19;;;;;;;;;2.00;2.00;;;;;;;;4710105;30;44827;-93
2021/08/06 01:31:44;;;;;;;;;3.67;1.33;;;;;;;;4702474;30;45395;-91
2021/08/06 01:40:09;;;;;;;;;2.00;1.00;;;;;;;;4667993;30;45626;-80
2021/08/06 01:45:23;;;;;;;;;3.50;2.00;;;;;;;;1357388;28;46133;-80
2021/08/06 01:47:52;;;;;;;;;2.25;2.25;;;;;;;;4674932;30;45603;-80
2021/08/06 01:50:46;;;;;;;;;3.00;1.75;;;;;;;;4669964;30;45711;-80
2021/08/06 01:53:32;;;;;;;;;4.00;2.00;;;;;;;;4670481;30;46027;-80
2021/08/06 01:56:20;;;;;;;;;1.25;1.25;;;;;;;;4680012;30;45647;-81
2021/08/06 01:59:03;;;;;;;;;;;;;;;;;;;;;
2021/08/06 02:01:40;;;;;;;;;2.00;2.00;;;;;;;;4912175;24;45573;-80
2021/08/06 02:04:25;;;;;;;;;5.00;2.25;;;;;;;;4695409;30;45621;-80
2021/08/06 02:10:06;;;;;;;;;1.25;1.25;;;;;;;;4637221;30;45685;-80
2021/08/06 02:13:39;;;;;;;;;4.50;1.50;;;;;;;;4637078;30;49777;-80
2021/08/06 02:15:47;;;;;;;;;3.00;2.00;;;;;;;;4582159;30;46539;-81
2021/08/06 02:18:16;;;;;;;;;3.50;2.00;;;;;;;;4591622;30;47077;-80
2021/08/06 02:20:42;;;;;;;;;2.00;2.00;;;;;;;;4590468;30;45947;-80
2021/08/06 02:23:33;;;;;;;;;3.50;2.00;;;;;;;;4585126;30;45628;-80
2021/08/06 02:26:36;;;;;;;;;3.50;2.00;;;;;;;;4647360;25;45945;-81
2021/08/06 02:29:03;;;;;;;;;3.00;3.00;;;;;;;;4670494;30;48217;-80
2021/08/06 02:37:15;;;;;;;;;3.00;1.50;;;;;;;;4686709;30;46730;-81
2021/08/06 02:47:19;;;;;;;;;2.75;1.75;;;;;;;;4682214;30;46359;-82
2021/08/06 02:50:02;;;;;;;;;2.50;1.00;;;;;;;;4670371;30;48170;-80
2021/08/06 02:58:48;;;;;;;;;2.00;2.00;;;;;;;;4616137;30;45585;-80
2021/08/06 03:01:13;;;;;;;;;3.00;2.33;;;;;;;;4619170;30;45520;-80
2021/08/06 03:03:38;;;;;;;;;3.00;1.67;;;;;;;;4606535;30;45664;-80
2021/08/06 03:06:03;;;;;;;;;4.00;2.00;;;;;;;;4620419;30;45795;-80
2021/08/06 03:08:29;;;;;;;;;1.50;1.50;;;;;;;;4602488;30;45576;-80
2021/08/06 03:10:57;;;;;;;;;4.00;1.00;;;;;;;;4616804;30;45688;-80
2021/08/06 03:13:23;;;;;;;;;1.00;1.00;;;;;;;;4620629;30;45441;-80
2021/08/06 03:15:48;;;;;;;;;1.25;1.00;;;;;;;;4615136;30;45323;-81
2021/08/06 03:18:19;;;;;;;;;4.75;2.00;;;;;;;;4622958;30;45836;-80
2021/08/06 03:20:44;;;;;;;;;0.75;0.75;;;;;;;;4618278;30;46222;-80
2021/08/06 03:29:59;;;;;;;;;1.25;1.25;;;;;;;;4506267;31;45472;-80
2021/08/06 03:32:25;;;;;;;;;4.00;1.50;;;;;;;;4487765;31;52759;-81
2021/08/06 03:34:50;;;;;;;;;4.00;2.00;;;;;;;;4495365;31;45789;-82
2021/08/06 03:37:15;;;;;;;;;7.25;2.00;;;;;;;;4524450;31;47698;-80
2021/08/06 03:46:09;;;;;;;;;2.00;2.00;;;;;;;;4583691;30;46437;-80
2021/08/06 03:48:35;;;;;;;;;6.25;1.00;;;;;;;;4660946;24;45586;-91
2021/08/06 03:53:53;;;;;;;;;3.00;1.75;;;;;;;;4957170;24;48290;-78
2021/08/06 03:59:21;;;;;;;;;1.75;1.75;;;;;;;;4701319;30;45371;-78
2021/08/06 04:01:50;;;;;;;;;2.00;1.00;;;;;;;;4705126;30;45588;-77
2021/08/06 04:06:46;;;;;;;;;1.00;1.00;;;;;;;;4700460;30;56594;-81
2021/08/06 04:09:21;;;;;;;;;1.00;1.00;;;;;;;;4710434;29;45538;-80
2021/08/06 04:11:46;;;;;;;;;3.25;2.50;;;;;;;;4697371;30;45547;-78
2021/08/06 04:14:11;;;;;;;;;1.00;1.00;;;;;;;;4704535;30;46305;-78
2021/08/06 04:19:45;;;;;;;;;2.75;1.00;;;;;;;;4636136;30;45269;-78
2021/08/06 04:22:13;;;;;;;;;1.00;1.00;;;;;;;;4641638;30;45765;-79
2021/08/06 04:24:38;;;;;;;;;1.50;1.00;;;;;;;;4643991;30;48056;-79
2021/08/06 04:27:04;;;;;;;;;0.00;0.00;;;;;;;;4656004;30;45535;-79
2021/08/06 04:30:03;;;;;;;;;1.50;1.00;;;;;;;;4640397;30;45555;-78
2021/08/06 04:32:29;;;;;;;;;3.00;1.00;;;;;;;;4566248;30;45669;-78
2021/08/06 04:34:54;;;;;;;;;2.50;1.00;;;;;;;;4585023;30;46684;-79
2021/08/06 04:37:19;;;;;;;;;2.00;2.00;;;;;;;;4584944;30;45573;-78
2021/08/06 04:39:49;;;;;;;;;4.00;1.00;;;;;;;;4585418;30;45716;-78
2021/08/06 04:42:15;;;;;;;;;2.25;2.00;;;;;;;;4576392;30;46392;-78
2021/08/06 04:44:40;;;;;;;;;1.00;1.00;;;;;;;;4568899;30;47312;-79
2021/08/06 04:47:06;;;;;;;;;1.33;1.33;;;;;;;;4568419;30;45662;-77
2021/08/06 04:50:03;;;;;;;;;3.75;1.00;;;;;;;;4587117;30;45878;-79
2021/08/06 04:52:29;;;;;;;;;1.00;1.00;;;;;;;;4538649;31;45698;-81
2021/08/06 04:54:54;;;;;;;;;2.00;1.00;;;;;;;;4534367;31;45634;-80
2021/08/06 04:57:19;;;;;;;;;1.00;1.00;;;;;;;;4568321;30;45602;-80
2021/08/06 05:00:03;;;;;;;;;1.00;1.00;;;;;;;;4569000;31;45969;-80
2021/08/06 05:03:00;;;;;;;;;1.25;1.25;;;;;;;;4572084;31;45514;-80
2021/08/06 05:08:54;;;;;;;;;2.25;1.00;;;;;;;;4457290;31;45596;-80
2021/08/06 05:13:55;;;;;;;;;4.00;1.00;;;;;;;;1300162;28;46940;-82
2021/08/06 05:16:55;;;;;;;;;4.25;1.50;;;;;;;;4690227;30;45948;-80
2021/08/06 05:19:20;;;;;;;;;1.50;1.00;;;;;;;;4672914;30;45282;-81
2021/08/06 05:21:45;;;;;;;;;1.25;1.00;;;;;;;;4688946;30;47810;-81
2021/08/06 05:24:49;;;;;;;;;1.75;1.00;;;;;;;;4690032;30;45443;-80
2021/08/06 05:27:14;;;;;;;;;1.00;1.00;;;;;;;;4671846;30;46503;-80
2021/08/06 05:30:00;;;;;;;;;2.00;1.00;;;;;;;;4678274;30;45495;-80
2021/08/06 05:32:48;;;;;;;;;2.00;2.00;;;;;;;;4693614;29;45524;-81
2021/08/06 05:35:13;;;;;;;;;1.00;1.00;;;;;;;;4692323;30;45530;-80
2021/08/06 05:37:39;;;;;;;;;4.00;1.00;;;;;;;;4686610;30;46466;-81
2021/08/06 05:40:13;;;;;;;;;1.00;1.00;;;;;;;;4689255;30;49554;-80
2021/08/06 05:42:44;;;;;;;;;2.00;1.00;;;;;;;;4687067;30;46249;-80
2021/08/06 05:45:27;;;;;;;;;1.00;1.00;;;;;;;;4690147;30;45832;-80
2021/08/06 05:47:53;;;;;;;;;4.00;2.00;;;;;;;;4738934;24;45574;-80
2021/08/06 05:50:48;;;;;;;;;0.75;0.75;;;;;;;;4689739;30;45707;-80
2021/08/06 05:53:38;;;;;;;;;3.50;1.00;;;;;;;;4654109;30;53044;-79
2021/08/06 05:56:03;;;;;;;;;3.25;1.00;;;;;;;;4673506;30;45589;-77
2021/08/06 05:58:28;;;;;;;;;1.50;1.50;;;;;;;;4692718;30;48146;-78
2021/08/06 06:01:30;;;;;;;;;;;;;;;;;;;;;
2021/08/06 06:04:02;;;;;;;;;5.00;1.50;;;;;;;;4685225;30;68601;-78
2021/08/06 06:06:27;;;;;;;;;1.00;1.00;;;;;;;;4673625;30;45524;-78
2021/08/06 06:08:52;;;;;;;;;5.25;1.00;;;;;;;;4675114;30;47064;-78
2021/08/06 06:11:19;;;;;;;;;0.75;0.75;;;;;;;;4689271;30;45680;-79
2021/08/06 06:13:45;;;;;;;;;2.00;1.00;;;;;;;;4692507;30;45220;-78
2021/08/06 06:16:28;;;;;;;;;1.00;1.00;;;;;;;;4686008;30;45629;-81
2021/08/06 06:22:18;;;;;;;;;;;;;;;;;;;;;
2021/08/06 06:24:57;;;;;;;;;2.00;0.25;;;;;;;;4683850;30;68725;-78
2021/08/06 06:30:10;;;;;;;;;0.75;0.75;;;;;;;;4615475;30;45624;-78
2021/08/06 06:32:44;;;;;;;;;1.00;1.00;;;;;;;;4615459;30;46151;-79
2021/08/06 06:35:15;;;;;;;;;2.00;0.25;;;;;;;;4600899;30;45652;-78
2021/08/06 06:43:16;;;;;;;;;1.00;1.00;;;;;;;;1295050;28;46246;-77
2021/08/06 06:45:44;;;;;;;;;2.25;1.00;;;;;;;;4610897;30;45566;-78
2021/08/06 06:48:09;;;;;;;;;2.50;1.00;;;;;;;;4600509;30;45634;-78
2021/08/06 06:55:57;;;;;;;;;0.00;0.00;;;;;;;;3109383;24;47724;-82
2021/08/06 06:58:23;;;;;;;;;3.25;0.00;;;;;;;;4645407;30;45467;-80
2021/08/06 07:01:20;;;;;;;;;3.00;1.75;;;;;;;;4637099;30;46600;-81
2021/08/06 07:04:08;;;;;;;;;0.50;0.50;;;;;;;;4650694;30;46230;-80
2021/08/06 07:06:34;;;;;;;;;0.00;0.00;;;;;;;;4633326;30;45758;-81
2021/08/06 07:08:59;;;;;;;;;2.50;1.00;;;;;;;;4656413;30;45583;-81
2021/08/06 07:11:27;;;;;;;;;1.67;0.00;;;;;;;;4657511;30;46208;-81
2021/08/06 07:13:52;;;;;;;;;0.00;0.00;;;;;;;;4660618;30;45559;-81
2021/08/06 07:16:18;;;;;;;;;1.00;1.00;;;;;;;;4659437;30;46058;-81
2021/08/06 07:21:25;;;;;;;;;1.75;0.00;;;;;;;;4661909;30;45433;-81
2021/08/06 07:23:52;;;;;;;;;1.00;1.00;;;;;;;;4782443;24;45640;-80
2021/08/06 07:26:17;;;;;;;;;3.00;1.00;;;;;;;;4695126;30;46241;-81
2021/08/06 07:28:45;;;;;;;;;1.00;1.00;;;;;;;;4707825;30;47398;-80
2021/08/06 07:31:52;;;;;;;;;1.00;1.00;;;;;;;;4677273;30;47601;-80
2021/08/06 07:34:16;;;;;;;;;3.50;2.00;;;;;;;;4736221;24;45810;-80
2021/08/06 07:36:42;;;;;;;;;2.25;0.25;;;;;;;;4708568;30;45387;-81
2021/08/06 07:39:13;;;;;;;;;2.75;0.25;;;;;;;;4714245;30;45487;-81
2021/08/06 07:41:39;;;;;;;;;1.00;1.00;;;;;;;;4703747;30;45642;-81
2021/08/06 07:46:54;;;;;;;;;1.00;1.00;;;;;;;;3870164;27;46148;-81
2021/08/06 07:49:55;;;;;;;;;1.00;1.00;;;;;;;;4696574;30;45464;-80
2021/08/06 07:52:46;;;;;;;;;;;;;;;;;;;;;
2021/08/06 07:55:13;;;;;;;;;3.00;0.00;;;;;;;;4685462;30;73094;-79
2021/08/06 07:57:38;;;;;;;;;1.25;1.00;;;;;;;;4688177;30;45879;-79
2021/08/06 08:00:04;;;;;;;;;0.75;0.75;;;;;;;;4691706;30;45547;-80
2021/08/06 08:02:32;;;;;;;;;1.00;0.50;;;;;;;;4676811;30;48031;-79
2021/08/06 08:04:57;;;;;;;;;1.50;1.50;;;;;;;;4673235;30;45610;-79
2021/08/06 08:07:54;;;;;;;;;1.50;0.50;;;;;;;;4690521;30;45542;-78
2021/08/06 08:10:49;;;;;;;;;1.00;1.00;;;;;;;;4674069;30;45627;-78
2021/08/06 08:13:15;;;;;;;;;1.25;1.25;;;;;;;;4674831;30;57506;-79
2021/08/06 08:15:40;;;;;;;;;1.00;1.00;;;;;;;;4688400;30;45834;-78
2021/08/06 08:18:05;;;;;;;;;2.25;1.00;;;;;;;;4699617;30;45451;-79
2021/08/06 08:20:31;;;;;;;;;0.25;0.25;;;;;;;;4689005;30;46555;-79
2021/08/06 08:23:34;;;;;;;;;;;;;;;;;;;;;
2021/08/06 08:26:00;;;;;;;;;1.00;1.00;;;;;;;;4687376;30;73350;-79
2021/08/06 08:31:37;;;;;;;;;2.75;0.75;;;;;;;;4593687;30;45616;-79
2021/08/06 08:34:05;;;;;;;;;1.50;1.00;;;;;;;;4602388;30;45861;-79
2021/08/06 08:36:30;;;;;;;;;1.00;1.00;;;;;;;;4601099;30;45551;-78
2021/08/06 08:39:07;;;;;;;;;2.50;1.00;;;;;;;;4607932;30;45520;-79
2021/08/06 08:41:36;;;;;;;;;2.25;1.00;;;;;;;;4602656;30;45570;-81
2021/08/06 08:47:24;;;;;;;;;2.00;1.25;;;;;;;;4589922;30;45679;-79
2021/08/06 08:50:15;;;;;;;;;3.00;1.00;;;;;;;;4577938;30;45642;-78
2021/08/06 08:53:02;;;;;;;;;1.00;1.00;;;;;;;;4587771;30;46307;-78
2021/08/06 08:55:31;;;;;;;;;2.50;1.00;;;;;;;;4586883;30;46496;-83
2021/08/06 08:57:57;;;;;;;;;2.00;1.00;;;;;;;;4588611;30;45794;-79
2021/08/06 09:00:25;;;;;;;;;0.50;0.50;;;;;;;;4590526;30;45506;-80
2021/08/06 09:02:52;;;;;;;;;1.25;0.00;;;;;;;;4589601;30;45596;-78
2021/08/06 09:05:19;;;;;;;;;3.00;0.50;;;;;;;;4588196;30;46572;-79
2021/08/06 09:07:45;;;;;;;;;0.75;0.50;;;;;;;;4591868;30;45527;-79
2021/08/06 09:10:52;;;;;;;;;2.00;1.00;;;;;;;;4585531;30;45966;-79
2021/08/06 09:13:37;;;;;;;;;1.25;0.00;;;;;;;;4535324;31;45674;-78
2021/08/06 09:16:05;;;;;;;;;0.00;0.00;;;;;;;;4533271;31;45813;-78
2021/08/06 09:18:59;;;;;;;;;1.50;1.50;;;;;;;;4534833;31;49265;-78
2021/08/06 09:21:27;;;;;;;;;2.25;1.00;;;;;;;;4535097;31;45700;-78
2021/08/06 09:24:00;;;;;;;;;1.00;1.00;;;;;;;;4651575;24;46309;-78
2021/08/06 09:26:45;;;;;;;;;0.50;0.50;;;;;;;;4675872;30;47929;-78
2021/08/06 09:32:49;;;;;;;;;1.00;0.00;;;;;;;;4586133;30;45733;-79
2021/08/06 09:35:18;;;;;;;;;1.50;1.00;;;;;;;;4582172;30;45522;-79
2021/08/06 09:38:02;;;;;;;;;1.00;1.00;;;;;;;;4588431;30;45850;-79
2021/08/06 09:40:49;;;;;;;;;1.00;0.25;;;;;;;;4588261;30;45614;-78
2021/08/06 09:43:17;;;;;;;;;0.25;0.25;;;;;;;;4578908;30;45570;-80
2021/08/06 09:45:43;;;;;;;;;0.00;0.00;;;;;;;;4586606;30;45675;-79
2021/08/06 09:48:09;;;;;;;;;0.25;0.25;;;;;;;;4581298;30;46055;-78
2021/08/06 09:50:46;;;;;;;;;0.50;0.50;;;;;;;;4583249;30;45580;-78
2021/08/06 09:53:12;;;;;;;;;0.75;0.00;;;;;;;;4574333;30;45726;-81
2021/08/06 09:58:31;;;;;;;;;0.25;0.00;;;;;;;;4043852;28;45950;-81
2021/08/06 10:01:03;;;;;;;;;0.50;0.50;;;;;;;;4672275;30;45633;-81
2021/08/06 10:09:53;;;;;;;;;0.50;0.50;;;;;;;;4911990;24;50713;-81
2021/08/06 10:12:18;;;;;;;;;1.75;0.75;;;;;;;;4644979;30;45575;-81
2021/08/06 10:14:44;;;;;;;;;2.25;1.00;;;;;;;;4654748;30;45559;-81
2021/08/06 10:17:53;;;;;;;;;1.50;0.00;;;;;;;;4656389;30;45526;-81
2021/08/06 10:20:20;;;;;;;;;0.00;0.00;;;;;;;;4900767;24;46681;-81
2021/08/06 10:22:46;;;;;;;;;1.00;1.00;;;;;;;;4691041;30;45459;-81
2021/08/06 10:30:44;;;;;;;;;3.00;1.00;;;;;;;;3839194;24;45549;-82
2021/08/06 10:49:00;;;;;;;;;0.25;0.25;;;;;;;;5105633;24;46136;-81
2021/08/06 10:51:34;;;;;;;;;0.75;0.75;;;;;;;;4648805;30;45436;-81
2021/08/06 10:54:28;;;;;;;;;1.25;1.00;;;;;;;;4674339;30;48707;-80
2021/08/06 10:59:57;;;;;;;;;3.75;0.50;;;;;;;;4625781;30;45583;-81
2021/08/06 11:02:34;;;;;;;;;0.75;0.00;;;;;;;;4591674;30;45815;-81
2021/08/06 11:05:00;;;;;;;;;2.25;1.00;;;;;;;;4769801;24;46726;-81
2021/08/06 11:09:58;;;;;;;;;2.00;0.00;;;;;;;;4692522;30;45637;-81
2021/08/06 11:12:31;;;;;;;;;1.50;1.00;;;;;;;;4679171;30;45467;-81
2021/08/06 11:15:06;;;;;;;;;2.00;0.50;;;;;;;;4686319;30;48971;-80
2021/08/06 11:17:34;;;;;;;;;0.00;0.00;;;;;;;;4678366;30;45629;-82
2021/08/06 11:20:07;;;;;;;;;1.00;1.00;;;;;;;;4733091;24;45634;-86
2021/08/06 11:23:00;;;;;;;;;0.25;0.25;;;;;;;;4695390;30;45625;-81
2021/08/06 11:25:26;;;;;;;;;2.00;1.00;;;;;;;;4692079;30;47435;-81
2021/08/06 11:30:38;;;;;;;;;0.75;0.75;;;;;;;;3070854;28;46131;-81
2021/08/06 11:33:07;;;;;;;;;0.00;0.00;;;;;;;;4690738;30;45627;-80
2021/08/06 11:35:37;;;;;;;;;0.00;0.00;;;;;;;;4668630;30;46248;-81
2021/08/06 11:38:03;;;;;;;;;0.25;0.25;;;;;;;;4688249;30;45969;-82
2021/08/06 11:40:29;;;;;;;;;3.00;0.00;;;;;;;;4675705;30;45614;-81
2021/08/06 11:43:15;;;;;;;;;1.00;0.00;;;;;;;;4685057;30;47870;-81
2021/08/06 11:45:48;;;;;;;;;2.00;0.50;;;;;;;;4684340;30;47662;-81
2021/08/06 11:48:22;;;;;;;;;0.25;0.25;;;;;;;;4694666;30;45441;-83
2021/08/06 11:54:28;;;;;;;;;1.25;0.75;;;;;;;;4612651;30;45676;-78
2021/08/06 11:57:23;;;;;;;;;0.00;0.00;;;;;;;;4555114;31;46372;-79
2021/08/06 11:59:48;;;;;;;;;0.00;0.00;;;;;;;;4537318;31;45680;-80
2021/08/06 12:02:21;;;;;;;;;0.00;0.00;;;;;;;;4532350;31;45499;-80
2021/08/06 12:04:51;;;;;;;;;0.50;0.50;;;;;;;;4540406;31;45420;-78
2021/08/06 12:07:24;;;;;;;;;1.00;0.00;;;;;;;;4531503;31;46880;-78
2021/08/06 12:10:09;;;;;;;;;1.00;1.00;;;;;;;;4533031;31;49859;-78
2021/08/06 12:12:35;;;;;;;;;0.00;0.00;;;;;;;;4533507;31;45677;-79
2021/08/06 12:15:29;;;;;;;;;0.50;0.50;;;;;;;;4533989;31;45727;-83
2021/08/06 12:18:10;;;;;;;;;0.50;0.50;;;;;;;;4537784;31;46778;-79
2021/08/06 12:20:55;;;;;;;;;0.00;0.00;;;;;;;;4531049;31;45632;-78
2021/08/06 12:23:21;;;;;;;;;1.75;1.00;;;;;;;;4648930;24;56029;-80
2021/08/06 12:26:29;;;;;;;;;0.25;0.25;;;;;;;;4690146;30;45835;-78
2021/08/06 12:29:06;;;;;;;;;0.00;0.00;;;;;;;;4687802;30;45541;-78
2021/08/06 12:34:40;;;;;;;;;0.00;0.00;;;;;;;;4687275;30;47889;-80
2021/08/06 12:37:08;;;;;;;;;0.75;0.75;;;;;;;;4684581;30;45564;-78
2021/08/06 12:39:45;;;;;;;;;0.50;0.50;;;;;;;;4689459;30;46555;-78
2021/08/06 12:42:11;;;;;;;;;3.00;0.00;;;;;;;;4683514;30;45617;-79
2021/08/06 12:45:05;;;;;;;;;2.00;0.75;;;;;;;;4691537;30;45572;-81
2021/08/06 12:47:40;;;;;;;;;2.00;0.25;;;;;;;;4618675;30;45509;-79
2021/08/06 12:50:07;;;;;;;;;0.00;0.00;;;;;;;;4621967;30;45682;-79
2021/08/06 12:52:36;;;;;;;;;0.00;0.00;;;;;;;;4608504;30;45521;-81
2021/08/06 12:55:37;;;;;;;;;1.00;1.00;;;;;;;;4619279;30;47468;-82
2021/08/06 12:58:22;;;;;;;;;0.25;0.25;;;;;;;;4567382;30;46169;-82
2021/08/06 13:03:53;;;;;;;;;0.00;0.00;;;;;;;;4565451;30;45708;-80
2021/08/06 13:06:27;;;;;;;;;0.00;0.00;;;;;;;;4574077;31;45595;-82
2021/08/06 13:08:52;;;;;;;;;0.00;0.00;;;;;;;;4570666;31;45317;-81
2021/08/06 13:11:18;;;;;;;;;0.50;0.50;;;;;;;;4570179;31;45515;-81
2021/08/06 13:13:45;;;;;;;;;0.00;0.00;;;;;;;;4571412;31;45606;-81
2021/08/06 13:22:08;;;;;;;;;0.25;0.00;;;;;;;;4721512;24;46833;-81
2021/08/06 13:24:33;;;;;;;;;0.00;0.00;;;;;;;;4638923;30;47728;-82
2021/08/06 13:27:01;;;;;;;;;0.50;0.00;;;;;;;;4778721;24;46582;-81
2021/08/06 13:29:50;;;;;;;;;1.25;0.25;;;;;;;;4689990;30;45853;-81
2021/08/06 13:32:15;;;;;;;;;0.00;0.00;;;;;;;;4674727;30;46300;-81
2021/08/06 13:35:15;;;;;;;;;0.00;0.00;;;;;;;;4674909;30;45783;-81
2021/08/06 13:37:41;;;;;;;;;0.25;0.25;;;;;;;;4699503;24;45617;-80
2021/08/06 13:41:05;;;;;;;;;1.25;0.00;;;;;;;;4673268;30;46415;-79
2021/08/06 13:43:53;;;;;;;;;0.00;0.00;;;;;;;;4620243;30;46252;-80
2021/08/06 13:46:18;;;;;;;;;0.00;0.00;;;;;;;;4689337;24;46325;-81
2021/08/06 13:49:07;;;;;;;;;0.00;0.00;;;;;;;;4657886;30;46186;-81
2021/08/06 13:51:32;;;;;;;;;0.00;0.00;;;;;;;;4635570;30;45632;-81
2021/08/06 13:53:58;;;;;;;;;0.00;0.00;;;;;;;;4662077;30;45629;-82
2021/08/06 13:56:23;;;;;;;;;0.00;0.00;;;;;;;;4644376;30;45925;-81
2021/08/06 13:59:07;;;;;;;;;0.75;0.00;;;;;;;;4660364;30;45571;-81
2021/08/06 14:04:38;;;;;;;;;0.00;0.00;;;;;;;;4554460;31;45690;-81
2021/08/06 14:07:04;;;;;;;;;0.75;0.75;;;;;;;;4551375;31;46940;-81
2021/08/06 14:09:30;;;;;;;;;0.00;0.00;;;;;;;;4554761;31;46559;-85
2021/08/06 14:12:26;;;;;;;;;0.50;0.50;;;;;;;;4533685;31;46346;-81
2021/08/06 14:15:33;;;;;;;;;3.50;0.50;;;;;;;;4535734;31;47299;-81
2021/08/06 14:23:32;;;;;;;;;0.25;0.25;;;;;;;;4061886;28;46131;-81
2021/08/06 14:29:12;;;;;;;;;0.25;0.00;;;;;;;;4630444;30;45603;-80
2021/08/06 14:31:40;;;;;;;;;0.00;0.00;;;;;;;;4774656;24;45514;-83
2021/08/06 14:34:15;;;;;;;;;0.00;0.00;;;;;;;;4703012;30;45628;-81
2021/08/06 14:36:41;;;;;;;;;1.00;1.00;;;;;;;;4690135;30;48330;-81
2021/08/06 14:39:26;;;;;;;;;0.75;0.75;;;;;;;;4710774;30;45731;-81
2021/08/06 14:42:10;;;;;;;;;0.00;0.00;;;;;;;;4714443;29;45417;-81
2021/08/06 14:47:10;;;;;;;;;0.50;0.50;;;;;;;;4700174;24;45607;-81
2021/08/06 14:49:35;;;;;;;;;0.00;0.00;;;;;;;;4675845;30;45550;-85
2021/08/06 14:52:00;;;;;;;;;0.25;0.25;;;;;;;;4672290;30;45678;-81
2021/08/06 14:54:26;;;;;;;;;0.00;0.00;;;;;;;;4690447;30;45516;-80
2021/08/06 14:59:20;;;;;;;;;0.00;0.00;;;;;;;;4682973;30;45970;-81
2021/08/06 15:01:45;;;;;;;;;0.00;0.00;;;;;;;;4676941;30;45486;-81
2021/08/06 15:04:17;;;;;;;;;2.00;0.25;;;;;;;;4689917;30;45573;-80
2021/08/06 15:06:42;;;;;;;;;0.00;0.00;;;;;;;;4686517;30;45573;-81
2021/08/06 15:09:08;;;;;;;;;0.75;0.75;;;;;;;;4742976;24;49427;-81
2021/08/06 15:11:53;;;;;;;;;1.00;1.00;;;;;;;;4719731;24;45612;-80
2021/08/06 15:14:18;;;;;;;;;0.00;0.00;;;;;;;;4656561;30;45447;-80
2021/08/06 15:16:44;;;;;;;;;0.75;0.00;;;;;;;;4653045;30;47733;-81
2021/08/06 15:21:57;;;;;;;;;0.25;0.25;;;;;;;;4703797;30;45872;-81
2021/08/06 15:24:23;;;;;;;;;1.50;0.00;;;;;;;;4709140;29;51030;-81
2021/08/06 15:27:29;;;;;;;;;0.00;0.00;;;;;;;;4703316;30;48072;-81
2021/08/06 15:29:54;;;;;;;;;0.75;0.00;;;;;;;;4705548;30;45594;-80
2021/08/06 15:32:39;;;;;;;;;1.00;1.00;;;;;;;;4688007;30;45535;-81
2021/08/06 15:35:23;;;;;;;;;0.75;0.75;;;;;;;;4706209;30;45620;-81
2021/08/06 15:37:48;;;;;;;;;0.50;0.50;;;;;;;;4712227;30;47478;-81
2021/08/06 15:40:13;;;;;;;;;0.75;0.75;;;;;;;;4706088;30;45921;-81
2021/08/06 15:43:02;;;;;;;;;0.00;0.00;;;;;;;;4709269;29;45788;-83
2021/08/06 15:48:38;;;;;;;;;0.00;0.00;;;;;;;;4693411;30;46558;-83
2021/08/06 15:53:33;;;;;;;;;1.50;0.75;;;;;;;;4683691;30;45657;-78
2021/08/06 15:55:58;;;;;;;;;1.75;0.75;;;;;;;;4686743;30;45513;-79
2021/08/06 15:58:26;;;;;;;;;0.00;0.00;;;;;;;;4702533;24;46424;-79
2021/08/06 16:01:34;;;;;;;;;2.00;1.00;;;;;;;;4657977;30;45544;-78
2021/08/06 16:04:22;;;;;;;;;0.75;0.75;;;;;;;;4602061;30;45578;-79
2021/08/06 16:06:48;;;;;;;;;0.00;0.00;;;;;;;;4599000;30;45633;-79
2021/08/06 16:12:39;;;;;;;;;0.00;0.00;;;;;;;;4652714;30;45674;-78
2021/08/06 16:15:24;;;;;;;;;3.50;0.50;;;;;;;;4657637;30;45557;-79
2021/08/06 16:17:55;;;;;;;;;0.00;0.00;;;;;;;;4654034;30;45806;-79
2021/08/06 16:20:23;;;;;;;;;0.25;0.25;;;;;;;;4634714;30;48367;-79
2021/08/06 16:27:59;;;;;;;;;0.25;0.25;;;;;;;;4543425;24;46416;-79
2021/08/06 16:30:24;;;;;;;;;0.00;0.00;;;;;;;;4659766;30;47216;-78
2021/08/06 16:32:57;;;;;;;;;0.75;0.50;;;;;;;;4650639;30;45959;-80
2021/08/06 16:35:22;;;;;;;;;1.25;0.25;;;;;;;;4642256;30;45774;-79
2021/08/06 16:37:48;;;;;;;;;2.00;0.25;;;;;;;;4665071;30;45597;-79
2021/08/06 16:40:13;;;;;;;;;0.75;0.00;;;;;;;;4648807;30;46357;-79
2021/08/06 16:42:39;;;;;;;;;0.00;0.00;;;;;;;;4658204;30;50272;-78
2021/08/06 16:45:22;;;;;;;;;0.00;0.00;;;;;;;;4662017;30;45512;-80
2021/08/06 16:47:47;;;;;;;;;0.00;0.00;;;;;;;;4655326;30;45698;-79
2021/08/06 16:50:12;;;;;;;;;0.00;0.00;;;;;;;;4658211;30;46105;-79
2021/08/06 16:52:38;;;;;;;;;0.00;0.00;;;;;;;;4659516;30;45708;-83
2021/08/06 17:00:15;;;;;;;;;2.00;0.50;;;;;;;;4715510;29;46460;-81
2021/08/06 17:06:10;;;;;;;;;2.50;0.00;;;;;;;;4664755;30;45307;-85
2021/08/06 17:08:35;;;;;;;;;1.00;1.00;;;;;;;;4653095;30;53846;-82
2021/08/06 17:11:01;;;;;;;;;2.25;1.00;;;;;;;;4837425;24;45785;-87
2021/08/06 17:13:26;;;;;;;;;0.50;0.00;;;;;;;;4658912;30;45533;-81
2021/08/06 17:16:21;;;;;;;;;1.00;1.00;;;;;;;;4655104;30;45583;-82
2021/08/06 17:18:48;;;;;;;;;1.00;0.00;;;;;;;;4654246;30;51934;-81
2021/08/06 17:21:13;;;;;;;;;0.00;0.00;;;;;;;;4658170;30;47441;-81
2021/08/06 17:24:07;;;;;;;;;2.00;0.50;;;;;;;;4657852;30;45623;-81
2021/08/06 17:29:37;;;;;;;;;0.00;0.00;;;;;;;;4748420;24;53608;-83
2021/08/06 17:32:02;;;;;;;;;0.25;0.25;;;;;;;;4862835;24;46218;-82
2021/08/06 17:34:27;;;;;;;;;2.00;0.00;;;;;;;;4663407;30;46472;-81
2021/08/06 17:36:53;;;;;;;;;0.00;0.00;;;;;;;;4667240;30;46570;-81
2021/08/06 17:42:24;;;;;;;;;1.00;0.50;;;;;;;;4621058;30;50467;-81
2021/08/06 17:44:49;;;;;;;;;1.00;1.00;;;;;;;;4619659;30;46356;-81
2021/08/06 17:47:15;;;;;;;;;0.00;0.00;;;;;;;;4603515;30;46306;-84
2021/08/06 17:49:40;;;;;;;;;3.50;0.75;;;;;;;;4609729;30;45557;-81
2021/08/06 17:52:05;;;;;;;;;0.75;0.75;;;;;;;;4615957;30;48059;-79
2021/08/06 17:54:31;;;;;;;;;1.25;0.50;;;;;;;;4616910;30;45558;-79
2021/08/06 17:56:56;;;;;;;;;1.00;0.75;;;;;;;;4620313;30;45569;-80
2021/08/06 17:59:31;;;;;;;;;;;;;;;;;;;;;
2021/08/06 18:01:58;;;;;;;;;0.75;0.75;;;;;;;;4686216;30;75422;-80
2021/08/06 18:04:23;;;;;;;;;1.75;1.75;;;;;;;;4685007;30;45662;-79
2021/08/06 18:06:48;;;;;;;;;0.00;0.00;;;;;;;;4684866;30;45654;-79
2021/08/06 18:09:29;;;;;;;;;0.75;0.75;;;;;;;;4684698;30;45613;-81
2021/08/06 18:14:30;;;;;;;;;0.50;0.50;;;;;;;;4740647;24;45661;-79
2021/08/06 18:17:13;;;;;;;;;3.25;0.00;;;;;;;;4672444;30;51864;-80
2021/08/06 18:19:39;;;;;;;;;1.50;0.00;;;;;;;;4689116;30;45559;-80
2021/08/06 18:22:04;;;;;;;;;0.00;0.00;;;;;;;;4875807;24;46219;-79
2021/08/06 18:28:04;;;;;;;;;0.50;0.50;;;;;;;;4646437;30;45647;-79
2021/08/06 18:30:30;;;;;;;;;0.00;0.00;;;;;;;;4612826;30;45642;-80
2021/08/06 18:32:58;;;;;;;;;1.25;0.75;;;;;;;;4622347;30;46297;-80
2021/08/06 18:35:23;;;;;;;;;0.00;0.00;;;;;;;;4622902;30;45456;-79
2021/08/06 18:37:49;;;;;;;;;1.00;0.25;;;;;;;;4625857;30;45602;-79
2021/08/06 18:40:15;;;;;;;;;0.75;0.00;;;;;;;;4616848;30;45920;-79
2021/08/06 18:42:41;;;;;;;;;0.00;0.00;;;;;;;;4616261;30;45636;-79
2021/08/06 18:45:33;;;;;;;;;1.75;0.00;;;;;;;;4619352;30;45657;-79
2021/08/06 18:47:58;;;;;;;;;2.00;0.75;;;;;;;;4616629;30;45505;-79
2021/08/06 18:50:25;;;;;;;;;0.50;0.50;;;;;;;;4608529;30;45477;-79
2021/08/06 18:56:15;;;;;;;;;1.75;0.25;;;;;;;;4544545;31;46603;-81
2021/08/06 18:58:40;;;;;;;;;1.50;0.50;;;;;;;;4745114;24;45625;-81
2021/08/06 19:01:05;;;;;;;;;1.50;0.50;;;;;;;;4670425;30;46312;-82
2021/08/06 19:03:34;;;;;;;;;1.00;1.00;;;;;;;;4801966;24;46339;-90
2021/08/06 19:08:44;;;;;;;;;4.00;3.25;;;;;;;;4259335;28;45574;-83
2021/08/06 19:16:49;;;;;;;;;4.50;3.00;;;;;;;;4692809;24;45904;-81
2021/08/06 19:19:14;;;;;;;;;3.00;1.50;;;;;;;;4682008;30;45432;-81
2021/08/06 19:24:17;;;;;;;;;3.25;3.00;;;;;;;;4797826;24;45346;-80
2021/08/06 19:26:52;;;;;;;;;3.00;3.00;;;;;;;;4672237;30;46414;-80
2021/08/06 19:29:17;;;;;;;;;2.00;2.00;;;;;;;;4686486;30;56204;-81
2021/08/06 19:31:43;;;;;;;;;3.00;2.00;;;;;;;;4677515;30;45427;-81
2021/08/06 19:34:57;;;;;;;;;2.00;2.00;;;;;;;;4680817;30;47401;-81